Nashville, Tennessee
Current Conditions -  °F | °C
As of 5:53 AM on Saturday 01 Nov 2014 (Local Time) from KBNA Reporting Station
Overcast Overcast  
Wind Chill: 28°   Ceiling: 3200
Heat Index: 38°   Visibility: 10mi
Dew Point: 26°   Wind: 18mph
Humidity: 62%   Direction: 350°N
Pressure: 30.21"   Gusts: 29mph
Location:  36.11°N, 86.68°W
Report Text: KBNA 011053Z 35016G25KT 10SM OVC032 03/M03 A3021 RMK AO2 SLP231 T00331033
Loading
Personal Weather Stations






























Interactive Weather Map
Tropical Storm Tracking
New forecast layout! Learn more

10-Day Weather Forecast

Advertisements
Track Severe Weather on mobile